| time (UTC) | temp F | wind direction | speed knots | gust knots | rain 1hr in | rain 24hr in | rain mn in | humidity % | barometer mb |
| 20260507033004 | 62 | 209 | 1.7 | 3.5 | 0.00 | 0.00 | 0.00 | 78 | 1017.0 |
| 20260507032004 | 62 | 225 | 0.9 | 3.5 | 0.00 | 0.00 | 0.00 | 77 | 1016.8 |
| 20260507031004 | 62 | 231 | 0.9 | 3.5 | 0.00 | 0.00 | 0.00 | 76 | 1016.7 |
| 20260507030004 | 62 | 238 | 1.7 | 3.5 | 0.00 | 0.00 | 0.00 | 75 | 1016.6 |
| 20260507025004 | 63 | 247 | 1.7 | 4.3 | 0.00 | 0.00 | 0.00 | 74 | 1016.5 |
| 20260507024004 | 63 | 221 | 2.6 | 7.0 | 0.00 | 0.00 | 0.00 | 74 | 1016.5 |
| 20260507023004 | 64 | 197 | 2.6 | 6.1 | 0.00 | 0.00 | 0.00 | 73 | 1016.4 |
| 20260507022004 | 64 | 208 | 2.6 | 7.0 | 0.00 | 0.00 | 0.00 | 72 | 1016.5 |
| 20260507021025 | 65 | 213 | 3.5 | 7.0 | 0.00 | 0.00 | 0.00 | 71 | 1016.4 |
| 20260507020004 | 66 | 219 | 3.5 | 8.7 | 0.00 | 0.00 | 0.00 | 69 | 1016.4 |
| 20260507015004 | 66 | 214 | 3.5 | 7.0 | 0.00 | 0.00 | 0.00 | 67 | 1016.3 |
| 20260507014004 | 67 | 219 | 3.5 | 8.7 | 0.00 | 0.00 | 0.00 | 66 | 1016.3 |
| 20260507013004 | 68 | 239 | 3.5 | 7.0 | 0.00 | 0.00 | 0.00 | 62 | 1016.2 |
| 20260507012004 | 69 | 251 | 3.5 | 7.8 | 0.00 | 0.00 | 0.00 | 60 | 1016.3 |
| 20260507011004 | 70 | 233 | 3.5 | 7.8 | 0.00 | 0.00 | 0.00 | 59 | 1016.4 |
| 20260507010004 | 70 | 235 | 3.5 | 7.8 | 0.00 | 0.00 | 0.00 | 58 | 1016.4 |
| 20260507005004 | 70 | 246 | 4.3 | 7.8 | 0.00 | 0.00 | 0.00 | 57 | 1016.3 |
| 20260507004004 | 71 | 241 | 3.5 | 10.4 | 0.00 | 0.00 | 0.00 | 56 | 1016.4 |
| 20260507003004 | 72 | 239 | 3.5 | 8.7 | 0.00 | 0.00 | 0.00 | 55 | 1016.3 |
| 20260507002004 | 72 | 247 | 4.3 | 8.7 | 0.00 | 0.00 | 0.00 | 54 | 1016.3 |
| 20260507001004 | 71 | 238 | 4.3 | 7.8 | 0.00 | 0.00 | 0.00 | 55 | 1016.3 |
| 20260507000004 | 72 | 242 | 4.3 | 11.3 | 0.00 | 0.00 | 0.00 | 54 | 1016.3 |
| 20260506235004 | 72 | 253 | 5.2 | 10.4 | 0.00 | 0.00 | 0.00 | 55 | 1016.3 |
| 20260506234004 | 72 | 246 | 4.3 | 12.2 | 0.00 | 0.00 | 0.00 | 55 | 1016.2 |
| 20260506233004 | 71 | 238 | 5.2 | 10.4 | 0.00 | 0.00 | 0.00 | 56 | 1016.3 |
| 20260506232004 | 72 | 237 | 4.3 | 12.2 | 0.00 | 0.00 | 0.00 | 54 | 1016.3 |
| 20260506231004 | 73 | 250 | 4.3 | 11.3 | 0.00 | 0.00 | 0.00 | 54 | 1016.5 |
| 20260506230004 | 73 | 242 | 4.3 | 10.4 | 0.00 | 0.00 | 0.00 | 55 | 1016.6 |
| 20260506225004 | 73 | 260 | 4.3 | 11.3 | 0.00 | 0.00 | 0.00 | 56 | 1016.7 |
| 20260506224025 | 72 | 255 | 5.2 | 12.2 | 0.00 | 0.00 | 0.00 | 56 | 1016.8 |
| 20260506223004 | 73 | 240 | 5.2 | 12.2 | 0.00 | 0.00 | 0.00 | 56 | 1016.9 |
| 20260506222004 | 73 | 238 | 5.2 | 11.3 | 0.00 | 0.00 | 0.00 | 56 | 1017.1 |
| 20260506221025 | 73 | 244 | 4.3 | 11.3 | 0.00 | 0.00 | 0.00 | 55 | 1017.3 |
| 20260506220004 | 73 | 243 | 5.2 | 10.4 | 0.00 | 0.00 | 0.00 | 57 | 1017.6 |
| 20260506215004 | 72 | 237 | 5.2 | 11.3 | 0.00 | 0.00 | 0.00 | 57 | 1017.6 |
| 20260506214004 | 72 | 233 | 5.2 | 14.8 | 0.00 | 0.00 | 0.00 | 58 | 1017.7 |
| 20260506213004 | 72 | 234 | 5.2 | 13.9 | 0.00 | 0.00 | 0.00 | 57 | 1017.7 |
| 20260506212004 | 72 | 239 | 5.2 | 10.4 | 0.00 | 0.00 | 0.00 | 56 | 1017.9 |
| 20260506211004 | 72 | 253 | 5.2 | 11.3 | 0.00 | 0.00 | 0.00 | 56 | 1017.8 |
| 20260506210025 | 72 | 246 | 5.2 | 12.2 | 0.00 | 0.00 | 0.00 | 56 | 1017.9 |
| 20260506205025 | 72 | 256 | 5.2 | 10.4 | 0.00 | 0.00 | 0.00 | 58 | 1018.0 |
| 20260506204004 | 72 | 249 | 4.3 | 12.2 | 0.00 | 0.00 | 0.00 | 57 | 1018.0 |
| 20260506203004 | 72 | 265 | 4.3 | 9.6 | 0.00 | 0.00 | 0.00 | 58 | 1018.1 |
| 20260506202004 | 71 | 258 | 5.2 | 11.3 | 0.00 | 0.00 | 0.00 | 60 | 1018.2 |
| 20260506201004 | 71 | 252 | 5.2 | 13.0 | 0.00 | 0.00 | 0.00 | 61 | 1018.2 |
| 20260506200025 | 71 | 252 | 4.3 | 12.2 | 0.00 | 0.00 | 0.00 | 61 | 1018.3 |
| 20260506194004 | 71 | 259 | 5.2 | 12.2 | 0.00 | 0.00 | 0.00 | 62 | 1018.3 |
| 20260506193004 | 70 | 269 | 5.2 | 12.2 | 0.00 | 0.00 | 0.00 | 63 | 1018.2 |
| 20260506192004 | 71 | 257 | 4.3 | 10.4 | 0.00 | 0.00 | 0.00 | 62 | 1018.3 |
| 20260506191004 | 71 | 268 | 4.3 | 9.6 | 0.00 | 0.00 | 0.00 | 61 | 1018.4 |
| 20260506190004 | 71 | 257 | 3.5 | 12.2 | 0.00 | 0.00 | 0.00 | 60 | 1018.6 |
| 20260506185004 | 71 | 236 | 3.5 | 6.1 | 0.00 | 0.00 | 0.00 | 61 | 1018.6 |
| 20260506184004 | 71 | 258 | 4.3 | 10.4 | 0.00 | 0.00 | 0.00 | 61 | 1018.7 |
| 20260506183005 | 71 | 247 | 3.5 | 7.8 | 0.00 | 0.00 | 0.00 | 59 | 1018.7 |
| 20260506182003 | 71 | 253 | 3.5 | 7.8 | 0.00 | 0.00 | 0.00 | 60 | 1018.7 |
| 20260506181003 | 71 | 244 | 4.3 | 8.7 | 0.00 | 0.00 | 0.00 | 57 | 1018.7 |
| 20260506180024 | 71 | 238 | 3.5 | 7.8 | 0.00 | 0.00 | 0.00 | 56 | 1018.7 |
| 20260506175003 | 71 | 245 | 3.5 | 8.7 | 0.00 | 0.00 | 0.00 | 55 | 1018.7 |
| 20260506173004 | 71 | 284 | 1.7 | 6.1 | 0.00 | 0.00 | 0.00 | 58 | 1018.7 |
| 20260506172004 | 70 | 269 | 2.6 | 5.2 | 0.00 | 0.00 | 0.00 | 56 | 1018.6 |
| 20260506171004 | 69 | 264 | 2.6 | 7.0 | 0.00 | 0.00 | 0.00 | 59 | 1018.7 |
| 20260506170003 | 69 | 282 | 2.6 | 7.0 | 0.00 | 0.00 | 0.00 | 59 | 1018.7 |
| 20260506165024 | 69 | 277 | 2.6 | 7.0 | 0.00 | 0.00 | 0.00 | 61 | 1018.8 |
| 20260506164004 | 68 | 231 | 2.6 | 6.1 | 0.00 | 0.00 | 0.00 | 60 | 1018.8 |
| 20260506163004 | 68 | 263 | 1.7 | 7.0 | 0.00 | 0.00 | 0.00 | 61 | 1018.8 |
| 20260506162003 | 68 | 287 | 1.7 | 6.1 | 0.00 | 0.00 | 0.00 | 61 | 1018.8 |
| 20260506161004 | 67 | 259 | 1.7 | 4.3 | 0.00 | 0.00 | 0.00 | 63 | 1018.6 |
| 20260506160004 | 66 | 154 | 0.9 | 5.2 | 0.00 | 0.00 | 0.00 | 63 | 1018.6 |
| 20260506155004 | 66 | 83 | 0.9 | 2.6 | 0.00 | 0.00 | 0.00 | 64 | 1018.6 |
| 20260506154003 | 64 | 83 | 0.9 | 2.6 | 0.00 | 0.00 | 0.00 | 68 | 1018.6 |
| 20260506153004 | 60 | 83 | 1.7 | 2.6 | 0.00 | 0.00 | 0.00 | 76 | 1018.6 |
| 20260506152003 | 57 | 83 | 1.7 | 3.5 | 0.00 | 0.00 | 0.00 | 80 | 1018.7 |
| 20260506151003 | 56 | 83 | 2.6 | 5.2 | 0.00 | 0.00 | 0.00 | 80 | 1018.6 |
| 20260506150004 | 55 | 74 | 3.5 | 7.8 | 0.00 | 0.00 | 0.00 | 81 | 1018.6 |
| 20260506145003 | 54 | 72 | 3.5 | 6.1 | 0.00 | 0.00 | 0.00 | 82 | 1018.7 |
| 20260506143003 | 53 | 73 | 2.6 | 6.1 | 0.00 | 0.00 | 0.00 | 84 | 1018.5 |
| 20260506142003 | 52 | 70 | 2.6 | 5.2 | 0.00 | 0.00 | 0.00 | 85 | 1018.4 |
| 20260506141004 | 51 | 71 | 2.6 | 5.2 | 0.00 | 0.00 | 0.00 | 85 | 1018.4 |
| 20260506140003 | 51 | 75 | 2.6 | 5.2 | 0.00 | 0.00 | 0.00 | 86 | 1018.3 |
| 20260506135024 | 51 | 79 | 1.7 | 5.2 | 0.00 | 0.00 | 0.00 | 86 | 1018.4 |
| 20260506134003 | 50 | 81 | 2.6 | 4.3 | 0.00 | 0.00 | 0.00 | 86 | 1018.3 |
| 20260506133003 | 50 | 81 | 1.7 | 3.5 | 0.00 | 0.00 | 0.00 | 86 | 1018.4 |
| 20260506132024 | 50 | 81 | 2.6 | 3.5 | 0.00 | 0.00 | 0.00 | 85 | 1018.4 |
| 20260506131003 | 50 | 81 | 2.6 | 5.2 | 0.00 | 0.00 | 0.00 | 85 | 1018.3 |
| 20260506130004 | 50 | 75 | 2.6 | 5.2 | 0.00 | 0.00 | 0.00 | 85 | 1018.1 |
| 20260506125003 | 51 | 70 | 2.6 | 5.2 | 0.00 | 0.00 | 0.00 | 85 | 1017.9 |
| 20260506124004 | 51 | 72 | 3.5 | 7.0 | 0.00 | 0.00 | 0.00 | 85 | 1017.8 |
| 20260506123003 | 51 | 70 | 3.5 | 7.8 | 0.00 | 0.00 | 0.00 | 86 | 1017.8 |
| 20260506122003 | 51 | 73 | 3.5 | 7.8 | 0.00 | 0.00 | 0.00 | 85 | 1017.6 |
| 20260506121003 | 51 | 67 | 3.5 | 7.8 | 0.00 | 0.00 | 0.00 | 85 | 1017.5 |
| 20260506120004 | 51 | 68 | 3.5 | 6.1 | 0.00 | 0.00 | 0.00 | 85 | 1017.5 |
| 20260506115003 | 51 | 70 | 3.5 | 6.1 | 0.00 | 0.00 | 0.00 | 85 | 1017.4 |
| 20260506114003 | 51 | 66 | 2.6 | 6.1 | 0.00 | 0.00 | 0.00 | 85 | 1017.6 |
| 20260506113024 | 51 | 62 | 3.5 | 7.0 | 0.00 | 0.00 | 0.00 | 85 | 1017.5 |
| 20260506112003 | 51 | 64 | 4.3 | 7.0 | 0.00 | 0.00 | 0.00 | 85 | 1017.6 |
| 20260506111003 | 51 | 67 | 4.3 | 9.6 | 0.00 | 0.00 | 0.00 | 86 | 1017.5 |
| 20260506110003 | 51 | 69 | 3.5 | 7.8 | 0.00 | 0.00 | 0.00 | 86 | 1017.5 |
| 20260506105024 | 51 | 67 | 3.5 | 7.8 | 0.00 | 0.00 | 0.00 | 86 | 1017.6 |
| 20260506104024 | 52 | 70 | 2.6 | 5.2 | 0.00 | 0.00 | 0.00 | 86 | 1017.5 |
| 20260506103025 | 52 | 72 | 2.6 | 7.0 | 0.00 | 0.00 | 0.00 | 86 | 1017.3 |
| 20260506102003 | 52 | 71 | 2.6 | 5.2 | 0.00 | 0.00 | 0.00 | 86 | 1017.4 |
| 20260506101003 | 52 | 70 | 2.6 | 5.2 | 0.00 | 0.00 | 0.00 | 85 | 1017.4 |
| 20260506100003 | 52 | 72 | 2.6 | 5.2 | 0.00 | 0.00 | 0.00 | 86 | 1017.4 |
| 20260506095003 | 52 | 77 | 2.6 | 4.3 | 0.00 | 0.00 | 0.00 | 86 | 1017.5 |
| 20260506094003 | 52 | 81 | 2.6 | 4.3 | 0.00 | 0.00 | 0.00 | 86 | 1017.7 |
| 20260506093003 | 52 | 80 | 1.7 | 4.3 | 0.00 | 0.00 | 0.00 | 86 | 1017.7 |
| 20260506092003 | 52 | 79 | 1.7 | 3.5 | 0.00 | 0.00 | 0.00 | 86 | 1017.6 |
| 20260506091003 | 52 | 80 | 2.6 | 4.3 | 0.00 | 0.00 | 0.00 | 85 | 1017.8 |
| 20260506090003 | 52 | 80 | 1.7 | 4.3 | 0.00 | 0.00 | 0.00 | 85 | 1017.9 |
| 20260506085003 | 53 | 80 | 1.7 | 4.3 | 0.00 | 0.00 | 0.00 | 85 | 1017.9 |
| 20260506084003 | 53 | 76 | 2.6 | 4.3 | 0.00 | 0.00 | 0.00 | 85 | 1017.9 |
| 20260506083003 | 53 | 62 | 2.6 | 5.2 | 0.00 | 0.00 | 0.00 | 86 | 1018.1 |
| 20260506082004 | 53 | 78 | 2.6 | 4.3 | 0.00 | 0.00 | 0.00 | 85 | 1018.1 |
| 20260506081005 | 53 | 90 | 2.6 | 4.3 | 0.00 | 0.00 | 0.00 | 85 | 1018.1 |
| 20260506073025 | 54 | 109 | 1.7 | 3.5 | 0.00 | 0.00 | 0.00 | 85 | 1018.1 |
| 20260506072025 | 54 | 109 | 1.7 | 3.5 | 0.00 | 0.00 | 0.00 | 85 | 1018.1 |
| 20260506071004 | 54 | 110 | 1.7 | 3.5 | 0.00 | 0.00 | 0.00 | 84 | 1018.0 |
| 20260506062025 | 55 | 117 | 1.7 | 5.2 | 0.00 | 0.00 | 0.00 | 83 | 1017.4 |
| 20260506061004 | 56 | 117 | 0.9 | 2.6 | 0.00 | 0.00 | 0.00 | 83 | 1017.3 |
| 20260506051004 | 57 | 0 | 0.0 | 0.0 | 0.00 | 0.00 | 0.00 | 81 | 1017.0 |
| 20260506045004 | 57 | 0 | 0.0 | 0.0 | 0.00 | 0.00 | 0.00 | 81 | 1016.7 |
| 20260506044004 | 57 | 0 | 0.0 | 0.0 | 0.00 | 0.00 | 0.00 | 81 | 1016.7 |
| 20260506043004 | 58 | 209 | 0.9 | 2.6 | 0.00 | 0.00 | 0.00 | 81 | 1016.6 |
| 20260506042004 | 58 | 209 | 0.9 | 2.6 | 0.00 | 0.00 | 0.00 | 80 | 1016.5 |
| 20260506041004 | 58 | 210 | 0.9 | 3.5 | 0.00 | 0.00 | 0.00 | 80 | 1016.2 |
| 20260506040004 | 58 | 210 | 1.7 | 4.3 | 0.00 | 0.00 | 0.00 | 80 | 1016.2 |
| 20260506035004 | 58 | 212 | 1.7 | 3.5 | 0.00 | 0.00 | 0.00 | 79 | 1016.0 |
| 20260506034025 | 58 | 220 | 2.6 | 5.2 | 0.00 | 0.00 | 0.00 | 79 | 1015.8 |